sensor_id;sensor_type;location;lat;lon;timestamp;pressure;altitude;pressure_sealevel;temperature;humidity
74708;BME280;63360;50.104;8.074;2023-02-01T00:00:54;97597.09;;;3.18;100.00
74708;BME280;63360;50.104;8.074;2023-02-01T00:03:21;97588.84;;;3.11;100.00
74708;BME280;63360;50.104;8.074;2023-02-01T00:05:57;97589.56;;;3.06;100.00
74708;BME280;63360;50.104;8.074;2023-02-01T00:08:24;97599.13;;;3.11;100.00
74708;BME280;63360;50.104;8.074;2023-02-01T00:11:03;97578.72;;;2.99;100.00
74708;BME280;63360;50.104;8.074;2023-02-01T00:13:30;97574.88;;;3.02;100.00
74708;BME280;63360;50.104;8.074;2023-02-01T00:16:25;97578.75;;;3.04;100.00
74708;BME280;63360;50.104;8.074;2023-02-01T00:19:03;97548.38;;;2.96;100.00
74708;BME280;63360;50.104;8.074;2023-02-01T00:21:30;97560.44;;;2.96;100.00
74708;BME280;63360;50.104;8.074;2023-02-01T00:23:57;97573.84;;;2.98;100.00
74708;BME280;63360;50.104;8.074;2023-02-01T00:26:32;97566.81;;;2.88;100.00
74708;BME280;63360;50.104;8.074;2023-02-01T00:29:01;97565.34;;;2.97;100.00
74708;BME280;63360;50.104;8.074;2023-02-01T00:31:27;97565.03;;;2.89;100.00
74708;BME280;63360;50.104;8.074;2023-02-01T00:33:55;97551.19;;;2.95;100.00
74708;BME280;63360;50.104;8.074;2023-02-01T00:36:21;97558.66;;;2.96;100.00
74708;BME280;63360;50.104;8.074;2023-02-01T00:38:48;97557.84;;;2.91;100.00
74708;BME280;63360;50.104;8.074;2023-02-01T00:41:18;97571.31;;;3.03;100.00
74708;BME280;63360;50.104;8.074;2023-02-01T00:43:45;97566.06;;;2.93;100.00
74708;BME280;63360;50.104;8.074;2023-02-01T00:46:14;97564.00;;;2.90;100.00
74708;BME280;63360;50.104;8.074;2023-02-01T00:48:41;97569.75;;;3.02;100.00
74708;BME280;63360;50.104;8.074;2023-02-01T00:51:13;97561.47;;;2.95;100.00
74708;BME280;63360;50.104;8.074;2023-02-01T00:53:41;97556.13;;;3.01;100.00
74708;BME280;63360;50.104;8.074;2023-02-01T00:56:08;97554.63;;;3.05;100.00
74708;BME280;63360;50.104;8.074;2023-02-01T00:58:34;97574.75;;;3.19;100.00
74708;BME280;63360;50.104;8.074;2023-02-01T01:03:35;97577.09;;;3.25;100.00
74708;BME280;63360;50.104;8.074;2023-02-01T01:06:06;97577.31;;;3.19;100.00
74708;BME280;63360;50.104;8.074;2023-02-01T01:08:33;97576.28;;;3.20;100.00
74708;BME280;63360;50.104;8.074;2023-02-01T01:11:17;97558.47;;;3.03;100.00
74708;BME280;63360;50.104;8.074;2023-02-01T01:13:47;97556.75;;;3.19;100.00
74708;BME280;63360;50.104;8.074;2023-02-01T01:16:14;97562.63;;;3.14;100.00
74708;BME280;63360;50.104;8.074;2023-02-01T01:18:41;97574.78;;;3.24;100.00
74708;BME280;63360;50.104;8.074;2023-02-01T01:21:09;97562.16;;;3.22;100.00
74708;BME280;63360;50.104;8.074;2023-02-01T01:23:36;97560.81;;;3.15;100.00
74708;BME280;63360;50.104;8.074;2023-02-01T01:26:07;97569.59;;;3.19;100.00
74708;BME280;63360;50.104;8.074;2023-02-01T01:28:35;97566.03;;;3.25;100.00
74708;BME280;63360;50.104;8.074;2023-02-01T01:31:01;97561.91;;;3.19;100.00
74708;BME280;63360;50.104;8.074;2023-02-01T01:33:28;97549.28;;;3.17;100.00
74708;BME280;63360;50.104;8.074;2023-02-01T01:35:55;97538.03;;;3.28;100.00
74708;BME280;63360;50.104;8.074;2023-02-01T01:38:21;97547.53;;;3.28;100.00
74708;BME280;63360;50.104;8.074;2023-02-01T01:40:48;97549.38;;;3.27;100.00
74708;BME280;63360;50.104;8.074;2023-02-01T01:43:18;97554.81;;;3.41;100.00
74708;BME280;63360;50.104;8.074;2023-02-01T01:45:45;97572.03;;;3.35;100.00
74708;BME280;63360;50.104;8.074;2023-02-01T01:48:27;97552.44;;;3.29;100.00
74708;BME280;63360;50.104;8.074;2023-02-01T01:51:00;97574.59;;;3.35;100.00
74708;BME280;63360;50.104;8.074;2023-02-01T01:53:32;97565.53;;;3.28;100.00
74708;BME280;63360;50.104;8.074;2023-02-01T01:56:00;97560.66;;;3.26;100.00
74708;BME280;63360;50.104;8.074;2023-02-01T01:58:29;97553.72;;;3.27;100.00
74708;BME280;63360;50.104;8.074;2023-02-01T02:00:58;97557.81;;;3.28;100.00
74708;BME280;63360;50.104;8.074;2023-02-01T02:03:54;97546.81;;;3.32;100.00
74708;BME280;63360;50.104;8.074;2023-02-01T02:06:38;97535.19;;;3.25;100.00
74708;BME280;63360;50.104;8.074;2023-02-01T02:09:07;97528.00;;;3.22;100.00
74708;BME280;63360;50.104;8.074;2023-02-01T02:11:33;97518.69;;;3.16;100.00
74708;BME280;63360;50.104;8.074;2023-02-01T02:13:59;97514.84;;;3.18;100.00
74708;BME280;63360;50.104;8.074;2023-02-01T02:25:12;97522.25;;;3.10;100.00
74708;BME280;63360;50.104;8.074;2023-02-01T02:33:51;97535.41;;;3.18;100.00
74708;BME280;63360;50.104;8.074;2023-02-01T02:36:39;97516.59;;;3.08;100.00
74708;BME280;63360;50.104;8.074;2023-02-01T02:39:16;97527.59;;;2.98;100.00
74708;BME280;63360;50.104;8.074;2023-02-01T02:42:07;97538.16;;;3.06;100.00
74708;BME280;63360;50.104;8.074;2023-02-01T02:45:05;97526.59;;;3.09;100.00
74708;BME280;63360;50.104;8.074;2023-02-01T02:48:11;97522.00;;;3.11;100.00
74708;BME280;63360;50.104;8.074;2023-02-01T02:50:48;97524.56;;;3.06;100.00
74708;BME280;63360;50.104;8.074;2023-02-01T02:54:00;97533.56;;;3.09;100.00
74708;BME280;63360;50.104;8.074;2023-02-01T02:56:48;97523.03;;;3.10;100.00
74708;BME280;63360;50.104;8.074;2023-02-01T02:59:34;97524.63;;;3.16;100.00
74708;BME280;63360;50.104;8.074;2023-02-01T03:02:21;97525.59;;;3.10;100.00
74708;BME280;63360;50.104;8.074;2023-02-01T03:05:06;97528.66;;;3.07;100.00
74708;BME280;63360;50.104;8.074;2023-02-01T03:11:05;97519.16;;;3.08;100.00
74708;BME280;63360;50.104;8.074;2023-02-01T03:16:17;97504.50;;;3.03;100.00
74708;BME280;63360;50.104;8.074;2023-02-01T03:19:08;97504.78;;;3.12;100.00
74708;BME280;63360;50.104;8.074;2023-02-01T03:21:43;97487.78;;;3.00;100.00
74708;BME280;63360;50.104;8.074;2023-02-01T03:24:18;97491.16;;;3.06;100.00
74708;BME280;63360;50.104;8.074;2023-02-01T03:26:52;97495.53;;;3.11;100.00
74708;BME280;63360;50.104;8.074;2023-02-01T03:29:24;97488.59;;;3.11;100.00
74708;BME280;63360;50.104;8.074;2023-02-01T03:31:53;97484.94;;;3.02;100.00
74708;BME280;63360;50.104;8.074;2023-02-01T03:34:20;97479.06;;;3.06;100.00
74708;BME280;63360;50.104;8.074;2023-02-01T03:37:06;97489.06;;;3.03;100.00
74708;BME280;63360;50.104;8.074;2023-02-01T03:42:34;97470.78;;;2.94;100.00
74708;BME280;63360;50.104;8.074;2023-02-01T03:45:16;97491.06;;;2.96;100.00
74708;BME280;63360;50.104;8.074;2023-02-01T03:47:48;97487.72;;;2.95;100.00
74708;BME280;63360;50.104;8.074;2023-02-01T03:50:22;97491.63;;;2.98;100.00
74708;BME280;63360;50.104;8.074;2023-02-01T03:52:52;97494.69;;;3.00;100.00
74708;BME280;63360;50.104;8.074;2023-02-01T03:55:22;97478.22;;;2.96;100.00
74708;BME280;63360;50.104;8.074;2023-02-01T03:58:12;97486.50;;;3.03;100.00
74708;BME280;63360;50.104;8.074;2023-02-01T04:00:40;97481.56;;;2.96;100.00
74708;BME280;63360;50.104;8.074;2023-02-01T04:03:07;97482.06;;;2.93;100.00
74708;BME280;63360;50.104;8.074;2023-02-01T04:05:34;97493.19;;;3.04;100.00
74708;BME280;63360;50.104;8.074;2023-02-01T04:08:00;97500.09;;;3.03;100.00
74708;BME280;63360;50.104;8.074;2023-02-01T04:10:27;97488.00;;;2.99;100.00
74708;BME280;63360;50.104;8.074;2023-02-01T04:12:53;97485.72;;;3.02;100.00
74708;BME280;63360;50.104;8.074;2023-02-01T04:15:20;97490.38;;;3.05;100.00
74708;BME280;63360;50.104;8.074;2023-02-01T04:17:46;97491.09;;;3.01;100.00
74708;BME280;63360;50.104;8.074;2023-02-01T04:20:13;97485.44;;;2.99;100.00
74708;BME280;63360;50.104;8.074;2023-02-01T04:22:39;97491.06;;;2.96;100.00
74708;BME280;63360;50.104;8.074;2023-02-01T04:25:06;97490.56;;;2.99;100.00
74708;BME280;63360;50.104;8.074;2023-02-01T04:27:34;97487.00;;;3.00;100.00
74708;BME280;63360;50.104;8.074;2023-02-01T04:30:02;97496.81;;;3.08;100.00
74708;BME280;63360;50.104;8.074;2023-02-01T04:32:29;97488.28;;;3.02;100.00
74708;BME280;63360;50.104;8.074;2023-02-01T04:34:55;97483.44;;;3.06;100.00
74708;BME280;63360;50.104;8.074;2023-02-01T04:37:21;97496.09;;;3.18;100.00
74708;BME280;63360;50.104;8.074;2023-02-01T04:39:48;97488.53;;;3.01;100.00
74708;BME280;63360;50.104;8.074;2023-02-01T04:42:14;97480.28;;;2.94;100.00
74708;BME280;63360;50.104;8.074;2023-02-01T04:44:40;97494.69;;;2.95;100.00
74708;BME280;63360;50.104;8.074;2023-02-01T04:47:08;97481.03;;;2.89;100.00
74708;BME280;63360;50.104;8.074;2023-02-01T04:49:34;97483.66;;;2.99;100.00
74708;BME280;63360;50.104;8.074;2023-02-01T04:52:01;97479.75;;;2.92;100.00
74708;BME280;63360;50.104;8.074;2023-02-01T04:54:27;97483.63;;;2.94;100.00
74708;BME280;63360;50.104;8.074;2023-02-01T04:56:53;97480.06;;;3.00;100.00
74708;BME280;63360;50.104;8.074;2023-02-01T04:59:20;97485.13;;;2.90;100.00
74708;BME280;63360;50.104;8.074;2023-02-01T05:01:46;97488.72;;;2.89;100.00
74708;BME280;63360;50.104;8.074;2023-02-01T05:04:14;97490.25;;;2.90;100.00
74708;BME280;63360;50.104;8.074;2023-02-01T05:06:40;97484.06;;;2.86;100.00
74708;BME280;63360;50.104;8.074;2023-02-01T05:09:07;97471.53;;;2.90;100.00
74708;BME280;63360;50.104;8.074;2023-02-01T05:11:33;97470.25;;;2.92;100.00
74708;BME280;63360;50.104;8.074;2023-02-01T05:14:18;97473.38;;;2.99;100.00
74708;BME280;63360;50.104;8.074;2023-02-01T05:16:44;97459.66;;;2.84;100.00
74708;BME280;63360;50.104;8.074;2023-02-01T05:19:11;97472.06;;;2.97;100.00
74708;BME280;63360;50.104;8.074;2023-02-01T05:21:37;97461.97;;;2.85;100.00
74708;BME280;63360;50.104;8.074;2023-02-01T05:24:04;97451.94;;;2.79;100.00
74708;BME280;63360;50.104;8.074;2023-02-01T05:26:42;97452.44;;;2.81;100.00
74708;BME280;63360;50.104;8.074;2023-02-01T05:29:09;97464.81;;;2.84;100.00
74708;BME280;63360;50.104;8.074;2023-02-01T05:31:36;97472.72;;;2.77;100.00
74708;BME280;63360;50.104;8.074;2023-02-01T05:34:03;97490.03;;;2.92;100.00
74708;BME280;63360;50.104;8.074;2023-02-01T05:36:30;97483.81;;;2.88;100.00
74708;BME280;63360;50.104;8.074;2023-02-01T05:38:57;97485.41;;;2.94;100.00
74708;BME280;63360;50.104;8.074;2023-02-01T05:41:24;97483.00;;;2.82;100.00
74708;BME280;63360;50.104;8.074;2023-02-01T05:43:50;97477.44;;;2.95;100.00
74708;BME280;63360;50.104;8.074;2023-02-01T05:46:17;97480.53;;;2.92;100.00
74708;BME280;63360;50.104;8.074;2023-02-01T05:48:43;97472.50;;;2.84;100.00
74708;BME280;63360;50.104;8.074;2023-02-01T05:51:11;97473.00;;;2.81;100.00
74708;BME280;63360;50.104;8.074;2023-02-01T05:53:38;97458.03;;;2.73;100.00
74708;BME280;63360;50.104;8.074;2023-02-01T05:56:05;97474.00;;;2.80;100.00
74708;BME280;63360;50.104;8.074;2023-02-01T05:58:32;97472.72;;;2.82;100.00
74708;BME280;63360;50.104;8.074;2023-02-01T06:00:59;97474.56;;;2.82;100.00
74708;BME280;63360;50.104;8.074;2023-02-01T06:03:26;97472.22;;;2.80;100.00
74708;BME280;63360;50.104;8.074;2023-02-01T06:05:53;97472.72;;;2.77;100.00
74708;BME280;63360;50.104;8.074;2023-02-01T06:08:20;97467.09;;;2.85;100.00
74708;BME280;63360;50.104;8.074;2023-02-01T06:10:46;97463.44;;;2.71;100.00
74708;BME280;63360;50.104;8.074;2023-02-01T06:13:12;97461.53;;;2.57;100.00
74708;BME280;63360;50.104;8.074;2023-02-01T06:15:39;97453.41;;;2.70;100.00
74708;BME280;63360;50.104;8.074;2023-02-01T06:18:07;97452.06;;;2.62;100.00
74708;BME280;63360;50.104;8.074;2023-02-01T06:20:34;97462.38;;;2.67;100.00
74708;BME280;63360;50.104;8.074;2023-02-01T06:23:00;97462.34;;;2.62;100.00
74708;BME280;63360;50.104;8.074;2023-02-01T06:25:26;97474.31;;;2.52;100.00
74708;BME280;63360;50.104;8.074;2023-02-01T06:27:53;97467.53;;;2.35;100.00
74708;BME280;63360;50.104;8.074;2023-02-01T06:30:19;97463.41;;;2.34;100.00
74708;BME280;63360;50.104;8.074;2023-02-01T06:32:50;97463.63;;;2.28;100.00
74708;BME280;63360;50.104;8.074;2023-02-01T06:35:19;97462.38;;;2.35;100.00
74708;BME280;63360;50.104;8.074;2023-02-01T06:37:46;97472.13;;;2.33;100.00
74708;BME280;63360;50.104;8.074;2023-02-01T06:40:12;97459.75;;;2.25;100.00
74708;BME280;63360;50.104;8.074;2023-02-01T06:42:39;97450.41;;;2.14;100.00
74708;BME280;63360;50.104;8.074;2023-02-01T06:45:06;97458.38;;;2.13;100.00
74708;BME280;63360;50.104;8.074;2023-02-01T06:47:33;97476.97;;;2.30;100.00
74708;BME280;63360;50.104;8.074;2023-02-01T06:49:59;97454.84;;;2.24;100.00
74708;BME280;63360;50.104;8.074;2023-02-01T06:52:26;97466.41;;;2.26;100.00
74708;BME280;63360;50.104;8.074;2023-02-01T06:54:52;97468.19;;;2.21;100.00
74708;BME280;63360;50.104;8.074;2023-02-01T06:57:18;97470.88;;;2.09;100.00
74708;BME280;63360;50.104;8.074;2023-02-01T06:59:45;97449.09;;;2.12;100.00
74708;BME280;63360;50.104;8.074;2023-02-01T07:02:12;97462.72;;;2.12;100.00
74708;BME280;63360;50.104;8.074;2023-02-01T07:04:39;97461.03;;;1.96;100.00
74708;BME280;63360;50.104;8.074;2023-02-01T07:07:05;97457.94;;;1.94;100.00
74708;BME280;63360;50.104;8.074;2023-02-01T07:09:32;97462.50;;;1.92;100.00
74708;BME280;63360;50.104;8.074;2023-02-01T07:11:58;97476.41;;;1.96;100.00
74708;BME280;63360;50.104;8.074;2023-02-01T07:14:24;97459.31;;;1.80;100.00
74708;BME280;63360;50.104;8.074;2023-02-01T07:16:51;97470.97;;;1.93;100.00
74708;BME280;63360;50.104;8.074;2023-02-01T07:19:17;97469.50;;;1.97;100.00
74708;BME280;63360;50.104;8.074;2023-02-01T07:21:43;97482.50;;;1.90;100.00
74708;BME280;63360;50.104;8.074;2023-02-01T07:24:10;97487.06;;;1.83;100.00
74708;BME280;63360;50.104;8.074;2023-02-01T07:26:36;97496.28;;;1.84;100.00
74708;BME280;63360;50.104;8.074;2023-02-01T07:29:03;97496.63;;;1.93;100.00
74708;BME280;63360;50.104;8.074;2023-02-01T07:31:29;97487.44;;;1.97;100.00
74708;BME280;63360;50.104;8.074;2023-02-01T07:33:55;97486.31;;;1.88;100.00
74708;BME280;63360;50.104;8.074;2023-02-01T07:36:24;97495.91;;;1.97;100.00
74708;BME280;63360;50.104;8.074;2023-02-01T07:38:50;97505.56;;;2.12;100.00
74708;BME280;63360;50.104;8.074;2023-02-01T07:41:21;97496.78;;;2.08;100.00
74708;BME280;63360;50.104;8.074;2023-02-01T07:43:48;97502.56;;;2.20;100.00
74708;BME280;63360;50.104;8.074;2023-02-01T07:46:16;97525.13;;;2.18;100.00
74708;BME280;63360;50.104;8.074;2023-02-01T07:48:43;97517.38;;;2.13;100.00
74708;BME280;63360;50.104;8.074;2023-02-01T07:51:11;97511.94;;;2.09;100.00
74708;BME280;63360;50.104;8.074;2023-02-01T07:53:38;97512.41;;;2.06;100.00
74708;BME280;63360;50.104;8.074;2023-02-01T07:56:14;97511.41;;;2.07;100.00
74708;BME280;63360;50.104;8.074;2023-02-01T07:58:41;97509.59;;;2.08;100.00
74708;BME280;63360;50.104;8.074;2023-02-01T08:01:33;97516.78;;;2.32;100.00
74708;BME280;63360;50.104;8.074;2023-02-01T08:04:01;97516.28;;;2.35;100.00
74708;BME280;63360;50.104;8.074;2023-02-01T08:06:31;97524.28;;;2.39;100.00
74708;BME280;63360;50.104;8.074;2023-02-01T08:08:58;97526.38;;;2.42;100.00
74708;BME280;63360;50.104;8.074;2023-02-01T08:11:25;97509.16;;;2.42;100.00
74708;BME280;63360;50.104;8.074;2023-02-01T08:13:52;97523.63;;;2.54;100.00
74708;BME280;63360;50.104;8.074;2023-02-01T08:16:20;97519.81;;;2.56;100.00
74708;BME280;63360;50.104;8.074;2023-02-01T08:18:47;97519.28;;;2.54;100.00
74708;BME280;63360;50.104;8.074;2023-02-01T08:21:22;97517.03;;;2.63;100.00
74708;BME280;63360;50.104;8.074;2023-02-01T08:23:49;97510.38;;;2.67;100.00
74708;BME280;63360;50.104;8.074;2023-02-01T08:26:24;97511.69;;;2.69;100.00
74708;BME280;63360;50.104;8.074;2023-02-01T08:28:53;97520.78;;;2.82;100.00
74708;BME280;63360;50.104;8.074;2023-02-01T08:31:21;97518.44;;;2.80;100.00
74708;BME280;63360;50.104;8.074;2023-02-01T08:33:51;97503.53;;;2.77;100.00
74708;BME280;63360;50.104;8.074;2023-02-01T08:36:18;97512.63;;;2.90;100.00
74708;BME280;63360;50.104;8.074;2023-02-01T08:38:44;97518.59;;;3.00;100.00
74708;BME280;63360;50.104;8.074;2023-02-01T08:41:13;97529.41;;;3.02;100.00
74708;BME280;63360;50.104;8.074;2023-02-01T08:43:41;97514.00;;;3.02;100.00
74708;BME280;63360;50.104;8.074;2023-02-01T08:46:08;97534.88;;;3.11;100.00
74708;BME280;63360;50.104;8.074;2023-02-01T08:48:36;97530.22;;;3.08;100.00
74708;BME280;63360;50.104;8.074;2023-02-01T08:51:04;97529.56;;;3.33;100.00
74708;BME280;63360;50.104;8.074;2023-02-01T08:53:31;97525.31;;;3.48;100.00
74708;BME280;63360;50.104;8.074;2023-02-01T08:55:58;97534.84;;;3.53;100.00
74708;BME280;63360;50.104;8.074;2023-02-01T08:58:25;97534.81;;;3.48;100.00
74708;BME280;63360;50.104;8.074;2023-02-01T09:00:51;97532.97;;;3.43;100.00
74708;BME280;63360;50.104;8.074;2023-02-01T09:03:18;97540.44;;;3.45;100.00
74708;BME280;63360;50.104;8.074;2023-02-01T09:05:44;97552.78;;;3.43;100.00
74708;BME280;63360;50.104;8.074;2023-02-01T09:08:15;97557.69;;;3.49;100.00
74708;BME280;63360;50.104;8.074;2023-02-01T09:10:42;97553.06;;;3.46;99.87
74708;BME280;63360;50.104;8.074;2023-02-01T09:13:09;97549.38;;;3.32;100.00
74708;BME280;63360;50.104;8.074;2023-02-01T09:15:36;97563.34;;;3.46;100.00
74708;BME280;63360;50.104;8.074;2023-02-01T09:18:03;97556.06;;;3.33;100.00
74708;BME280;63360;50.104;8.074;2023-02-01T09:20:29;97565.38;;;3.44;100.00
74708;BME280;63360;50.104;8.074;2023-02-01T09:22:57;97552.50;;;3.39;100.00
74708;BME280;63360;50.104;8.074;2023-02-01T09:25:23;97566.69;;;3.47;100.00
74708;BME280;63360;50.104;8.074;2023-02-01T09:27:50;97573.63;;;3.46;100.00
74708;BME280;63360;50.104;8.074;2023-02-01T09:30:16;97578.84;;;3.56;99.79
74708;BME280;63360;50.104;8.074;2023-02-01T09:32:43;97579.31;;;3.48;100.00
74708;BME280;63360;50.104;8.074;2023-02-01T09:35:09;97586.50;;;3.51;100.00
74708;BME280;63360;50.104;8.074;2023-02-01T09:37:36;97605.28;;;3.52;98.99
74708;BME280;63360;50.104;8.074;2023-02-01T09:40:04;97617.41;;;3.56;97.84
74708;BME280;63360;50.104;8.074;2023-02-01T09:42:47;97588.06;;;3.52;99.75
74708;BME280;63360;50.104;8.074;2023-02-01T09:45:57;97587.84;;;3.59;98.75
74708;BME280;63360;50.104;8.074;2023-02-01T09:48:29;97588.06;;;3.52;96.30
74708;BME280;63360;50.104;8.074;2023-02-01T09:50:58;97577.72;;;3.42;99.27
74708;BME280;63360;50.104;8.074;2023-02-01T09:53:37;97594.22;;;3.51;98.84
74708;BME280;63360;50.104;8.074;2023-02-01T09:56:12;97583.22;;;3.56;98.47
74708;BME280;63360;50.104;8.074;2023-02-01T09:58:58;97584.25;;;3.65;98.18
74708;BME280;63360;50.104;8.074;2023-02-01T10:01:27;97592.31;;;3.79;99.02
74708;BME280;63360;50.104;8.074;2023-02-01T10:04:05;97569.66;;;3.76;97.64
74708;BME280;63360;50.104;8.074;2023-02-01T10:06:44;97581.56;;;3.92;99.71
74708;BME280;63360;50.104;8.074;2023-02-01T10:15:28;97595.81;;;4.09;97.65
74708;BME280;63360;50.104;8.074;2023-02-01T10:26:20;97566.22;;;4.22;94.38
74708;BME280;63360;50.104;8.074;2023-02-01T10:29:00;97576.03;;;4.25;93.25
74708;BME280;63360;50.104;8.074;2023-02-01T10:31:33;97582.97;;;4.35;93.70
74708;BME280;63360;50.104;8.074;2023-02-01T10:34:11;97582.44;;;4.22;94.52
74708;BME280;63360;50.104;8.074;2023-02-01T10:36:49;97579.09;;;4.17;95.24
74708;BME280;63360;50.104;8.074;2023-02-01T10:39:16;97569.31;;;4.24;94.68
74708;BME280;63360;50.104;8.074;2023-02-01T10:41:43;97567.25;;;4.26;94.68
74708;BME280;63360;50.104;8.074;2023-02-01T10:44:19;97551.28;;;4.14;95.17
74708;BME280;63360;50.104;8.074;2023-02-01T10:46:46;97562.34;;;4.19;94.46
74708;BME280;63360;50.104;8.074;2023-02-01T10:49:28;97556.94;;;4.16;95.27
74708;BME280;63360;50.104;8.074;2023-02-01T10:52:02;97541.19;;;4.07;93.82
74708;BME280;63360;50.104;8.074;2023-02-01T10:54:35;97545.84;;;4.05;95.22
74708;BME280;63360;50.104;8.074;2023-02-01T10:57:20;97539.09;;;3.94;97.83
74708;BME280;63360;50.104;8.074;2023-02-01T10:59:46;97532.19;;;4.00;96.04
74708;BME280;63360;50.104;8.074;2023-02-01T11:04:44;97528.06;;;3.99;94.68
74708;BME280;63360;50.104;8.074;2023-02-01T11:07:17;97543.25;;;4.05;95.23
74708;BME280;63360;50.104;8.074;2023-02-01T11:09:50;97541.72;;;4.04;96.48
74708;BME280;63360;50.104;8.074;2023-02-01T11:12:37;97550.97;;;4.05;95.90
74708;BME280;63360;50.104;8.074;2023-02-01T11:15:21;97534.25;;;4.08;94.92
74708;BME280;63360;50.104;8.074;2023-02-01T11:17:50;97515.22;;;4.14;93.90
74708;BME280;63360;50.104;8.074;2023-02-01T11:22:57;97520.38;;;4.09;95.46
74708;BME280;63360;50.104;8.074;2023-02-01T11:25:25;97520.91;;;4.21;93.28
74708;BME280;63360;50.104;8.074;2023-02-01T11:27:54;97527.34;;;4.28;92.73
74708;BME280;63360;50.104;8.074;2023-02-01T11:30:38;97519.38;;;4.40;92.98
74708;BME280;63360;50.104;8.074;2023-02-01T11:33:12;97535.63;;;4.51;92.97
74708;BME280;63360;50.104;8.074;2023-02-01T11:35:41;97526.09;;;4.51;91.61
74708;BME280;63360;50.104;8.074;2023-02-01T11:38:28;97528.41;;;4.43;92.36
74708;BME280;63360;50.104;8.074;2023-02-01T11:41:13;97541.03;;;4.44;92.10
74708;BME280;63360;50.104;8.074;2023-02-01T11:43:57;97527.13;;;4.40;94.56
74708;BME280;63360;50.104;8.074;2023-02-01T11:46:29;97527.88;;;4.41;93.13
74708;BME280;63360;50.104;8.074;2023-02-01T11:48:57;97524.31;;;4.42;92.30
74708;BME280;63360;50.104;8.074;2023-02-01T11:51:49;97522.22;;;4.44;92.80
74708;BME280;63360;50.104;8.074;2023-02-01T11:54:27;97514.25;;;4.45;92.09
74708;BME280;63360;50.104;8.074;2023-02-01T11:57:09;97508.56;;;4.43;90.95
74708;BME280;63360;50.104;8.074;2023-02-01T12:08:17;97504.47;;;4.62;91.59
74708;BME280;63360;50.104;8.074;2023-02-01T12:21:58;97487.72;;;4.50;91.45
74708;BME280;63360;50.104;8.074;2023-02-01T12:29:56;97499.31;;;4.52;93.26
74708;BME280;63360;50.104;8.074;2023-02-01T12:32:33;97497.50;;;4.48;92.44
74708;BME280;63360;50.104;8.074;2023-02-01T12:37:54;97479.97;;;4.45;92.51
74708;BME280;63360;50.104;8.074;2023-02-01T12:43:23;97478.19;;;4.55;91.43
74708;BME280;63360;50.104;8.074;2023-02-01T12:45:56;97478.19;;;4.55;92.38
74708;BME280;63360;50.104;8.074;2023-02-01T12:48:38;97480.50;;;4.62;90.85
74708;BME280;63360;50.104;8.074;2023-02-01T12:51:16;97476.13;;;4.57;89.97
74708;BME280;63360;50.104;8.074;2023-02-01T12:53:50;97468.91;;;4.54;90.46
74708;BME280;63360;50.104;8.074;2023-02-01T12:56:28;97464.56;;;4.50;89.24
74708;BME280;63360;50.104;8.074;2023-02-01T12:58:59;97444.19;;;4.48;91.86
74708;BME280;63360;50.104;8.074;2023-02-01T13:01:42;97450.38;;;4.57;90.95
74708;BME280;63360;50.104;8.074;2023-02-01T13:04:25;97460.91;;;4.56;91.03
74708;BME280;63360;50.104;8.074;2023-02-01T13:07:09;97442.38;;;4.49;91.98
74708;BME280;63360;50.104;8.074;2023-02-01T13:09:49;97445.97;;;4.53;90.62
74708;BME280;63360;50.104;8.074;2023-02-01T13:12:23;97443.41;;;4.48;90.61
74708;BME280;63360;50.104;8.074;2023-02-01T13:15:09;97464.78;;;4.63;89.07
74708;BME280;63360;50.104;8.074;2023-02-01T13:17:38;97436.97;;;4.60;89.44
74708;BME280;63360;50.104;8.074;2023-02-01T13:20:21;97430.00;;;4.61;91.02
74708;BME280;63360;50.104;8.074;2023-02-01T13:22:59;97436.97;;;4.60;89.81
74708;BME280;63360;50.104;8.074;2023-02-01T13:25:49;97453.72;;;4.68;88.34
74708;BME280;63360;50.104;8.074;2023-02-01T13:28:24;97450.88;;;4.69;90.09
74708;BME280;63360;50.104;8.074;2023-02-01T13:37:20;97460.94;;;4.71;88.51
74708;BME280;63360;50.104;8.074;2023-02-01T13:40:10;97456.03;;;4.64;89.57
74708;BME280;63360;50.104;8.074;2023-02-01T13:42:51;97456.00;;;4.79;87.20
74708;BME280;63360;50.104;8.074;2023-02-01T13:45:25;97466.06;;;4.81;87.21
74708;BME280;63360;50.104;8.074;2023-02-01T13:47:56;97458.59;;;4.69;88.44
74708;BME280;63360;50.104;8.074;2023-02-01T13:50:33;97473.03;;;4.70;89.35
74708;BME280;63360;50.104;8.074;2023-02-01T13:55:43;97465.31;;;4.70;88.93
74708;BME280;63360;50.104;8.074;2023-02-01T13:58:34;97460.41;;;4.64;87.94
74708;BME280;63360;50.104;8.074;2023-02-01T14:01:31;97468.66;;;4.76;87.47
74708;BME280;63360;50.104;8.074;2023-02-01T14:04:03;97458.34;;;4.61;88.75
74708;BME280;63360;50.104;8.074;2023-02-01T14:11:51;97450.34;;;4.67;86.76
74708;BME280;63360;50.104;8.074;2023-02-01T14:19:25;97432.34;;;4.57;88.61
74708;BME280;63360;50.104;8.074;2023-02-01T14:21:53;97440.03;;;4.72;89.01
74708;BME280;63360;50.104;8.074;2023-02-01T14:24:32;97431.56;;;4.57;89.70
74708;BME280;63360;50.104;8.074;2023-02-01T14:27:02;97438.25;;;4.73;87.25
74708;BME280;63360;50.104;8.074;2023-02-01T14:29:49;97428.19;;;4.66;87.75
74708;BME280;63360;50.104;8.074;2023-02-01T14:32:22;97443.94;;;4.55;89.90
74708;BME280;63360;50.104;8.074;2023-02-01T14:34:53;97451.66;;;4.60;89.11
74708;BME280;63360;50.104;8.074;2023-02-01T14:39:55;97435.94;;;4.51;89.80
74708;BME280;63360;50.104;8.074;2023-02-01T14:50:46;97446.22;;;4.61;88.13
74708;BME280;63360;50.104;8.074;2023-02-01T14:53:20;97447.00;;;4.62;88.04
74708;BME280;63360;50.104;8.074;2023-02-01T14:55:59;97448.31;;;4.64;88.30
74708;BME280;63360;50.104;8.074;2023-02-01T14:58:50;97445.44;;;4.66;89.63
74708;BME280;63360;50.104;8.074;2023-02-01T15:01:22;97445.44;;;4.66;88.38
74708;BME280;63360;50.104;8.074;2023-02-01T15:04:00;97440.03;;;4.72;88.14
74708;BME280;63360;50.104;8.074;2023-02-01T15:06:36;97447.25;;;4.75;86.12
74708;BME280;63360;50.104;8.074;2023-02-01T15:12:23;97463.25;;;4.67;88.48
74708;BME280;63360;50.104;8.074;2023-02-01T15:15:18;97445.97;;;4.68;86.81
74708;BME280;63360;50.104;8.074;2023-02-01T15:17:53;97445.22;;;4.67;86.95